sensor_id;sensor_type;location;lat;lon;timestamp;P1;durP1;ratioP1;P2;durP2;ratioP2
69894;SDS011;57172;52.034;5.090;2023-12-04T00:02:11;17.65;;;6.53;;
69894;SDS011;57172;52.034;5.090;2023-12-04T00:04:38;19.40;;;7.33;;
69894;SDS011;57172;52.034;5.090;2023-12-04T00:07:05;14.10;;;6.05;;
69894;SDS011;57172;52.034;5.090;2023-12-04T00:09:32;14.60;;;6.70;;
69894;SDS011;57172;52.034;5.090;2023-12-04T00:11:59;20.90;;;7.90;;
69894;SDS011;57172;52.034;5.090;2023-12-04T00:14:26;18.77;;;7.25;;
69894;SDS011;57172;52.034;5.090;2023-12-04T00:16:53;19.13;;;6.93;;
69894;SDS011;57172;52.034;5.090;2023-12-04T00:19:19;12.68;;;5.55;;
69894;SDS011;57172;52.034;5.090;2023-12-04T00:21:46;19.33;;;7.60;;
69894;SDS011;57172;52.034;5.090;2023-12-04T00:24:13;19.08;;;7.20;;
69894;SDS011;57172;52.034;5.090;2023-12-04T00:26:40;16.27;;;6.40;;
69894;SDS011;57172;52.034;5.090;2023-12-04T00:29:07;15.93;;;6.60;;
69894;SDS011;57172;52.034;5.090;2023-12-04T00:31:34;11.82;;;4.97;;
69894;SDS011;57172;52.034;5.090;2023-12-04T00:34:01;15.15;;;5.90;;
69894;SDS011;57172;52.034;5.090;2023-12-04T00:36:28;19.58;;;7.60;;
69894;SDS011;57172;52.034;5.090;2023-12-04T00:38:55;20.73;;;8.07;;
69894;SDS011;57172;52.034;5.090;2023-12-04T00:41:22;17.93;;;7.20;;
69894;SDS011;57172;52.034;5.090;2023-12-04T00:43:48;21.15;;;7.15;;
69894;SDS011;57172;52.034;5.090;2023-12-04T00:46:15;20.38;;;8.02;;
69894;SDS011;57172;52.034;5.090;2023-12-04T00:48:42;19.55;;;7.40;;
69894;SDS011;57172;52.034;5.090;2023-12-04T00:51:09;18.65;;;8.02;;
69894;SDS011;57172;52.034;5.090;2023-12-04T00:53:36;17.50;;;6.60;;
69894;SDS011;57172;52.034;5.090;2023-12-04T00:56:03;17.15;;;6.50;;
69894;SDS011;57172;52.034;5.090;2023-12-04T00:58:30;23.77;;;7.95;;
69894;SDS011;57172;52.034;5.090;2023-12-04T01:00:57;19.17;;;7.55;;
69894;SDS011;57172;52.034;5.090;2023-12-04T01:03:24;21.65;;;8.07;;
69894;SDS011;57172;52.034;5.090;2023-12-04T01:05:53;20.40;;;7.43;;
69894;SDS011;57172;52.034;5.090;2023-12-04T01:08:19;26.63;;;7.93;;
69894;SDS011;57172;52.034;5.090;2023-12-04T01:10:47;21.65;;;8.60;;
69894;SDS011;57172;52.034;5.090;2023-12-04T01:13:14;23.02;;;8.82;;
69894;SDS011;57172;52.034;5.090;2023-12-04T01:15:41;21.48;;;8.93;;
69894;SDS011;57172;52.034;5.090;2023-12-04T01:18:09;22.77;;;8.77;;
69894;SDS011;57172;52.034;5.090;2023-12-04T01:20:36;23.33;;;9.23;;
69894;SDS011;57172;52.034;5.090;2023-12-04T01:23:03;25.15;;;9.10;;
69894;SDS011;57172;52.034;5.090;2023-12-04T01:25:29;23.92;;;8.77;;
69894;SDS011;57172;52.034;5.090;2023-12-04T01:27:56;26.55;;;9.25;;
69894;SDS011;57172;52.034;5.090;2023-12-04T01:30:23;22.40;;;8.97;;
69894;SDS011;57172;52.034;5.090;2023-12-04T01:32:50;23.88;;;8.88;;
69894;SDS011;57172;52.034;5.090;2023-12-04T01:35:18;21.65;;;8.60;;
69894;SDS011;57172;52.034;5.090;2023-12-04T01:37:45;22.25;;;8.10;;
69894;SDS011;57172;52.034;5.090;2023-12-04T01:40:12;20.52;;;7.35;;
69894;SDS011;57172;52.034;5.090;2023-12-04T01:42:39;20.73;;;7.43;;
69894;SDS011;57172;52.034;5.090;2023-12-04T01:45:08;21.30;;;8.07;;
69894;SDS011;57172;52.034;5.090;2023-12-04T01:47:35;18.70;;;7.45;;
69894;SDS011;57172;52.034;5.090;2023-12-04T01:50:03;19.77;;;8.05;;
69894;SDS011;57172;52.034;5.090;2023-12-04T01:52:31;20.40;;;8.38;;
69894;SDS011;57172;52.034;5.090;2023-12-04T01:54:58;19.07;;;7.73;;
69894;SDS011;57172;52.034;5.090;2023-12-04T01:57:25;23.35;;;8.70;;
69894;SDS011;57172;52.034;5.090;2023-12-04T01:59:52;20.85;;;8.00;;
69894;SDS011;57172;52.034;5.090;2023-12-04T02:02:19;20.27;;;8.52;;
69894;SDS011;57172;52.034;5.090;2023-12-04T02:04:46;19.10;;;7.70;;
69894;SDS011;57172;52.034;5.090;2023-12-04T02:07:13;18.43;;;7.30;;
69894;SDS011;57172;52.034;5.090;2023-12-04T02:09:40;21.23;;;8.15;;
69894;SDS011;57172;52.034;5.090;2023-12-04T02:12:07;20.63;;;7.10;;
69894;SDS011;57172;52.034;5.090;2023-12-04T02:14:35;16.58;;;6.57;;
69894;SDS011;57172;52.034;5.090;2023-12-04T02:17:02;16.58;;;7.05;;
69894;SDS011;57172;52.034;5.090;2023-12-04T02:19:32;27.07;;;8.67;;
69894;SDS011;57172;52.034;5.090;2023-12-04T02:21:59;17.73;;;6.93;;
69894;SDS011;57172;52.034;5.090;2023-12-04T02:24:26;21.00;;;8.20;;
69894;SDS011;57172;52.034;5.090;2023-12-04T02:26:54;20.73;;;7.95;;
69894;SDS011;57172;52.034;5.090;2023-12-04T02:29:31;21.95;;;8.50;;
69894;SDS011;57172;52.034;5.090;2023-12-04T02:32:04;19.93;;;8.07;;
69894;SDS011;57172;52.034;5.090;2023-12-04T02:34:33;21.05;;;8.48;;
69894;SDS011;57172;52.034;5.090;2023-12-04T02:37:01;19.85;;;8.48;;
69894;SDS011;57172;52.034;5.090;2023-12-04T02:39:29;24.25;;;9.27;;
69894;SDS011;57172;52.034;5.090;2023-12-04T02:41:57;21.33;;;9.05;;
69894;SDS011;57172;52.034;5.090;2023-12-04T02:44:24;23.83;;;9.47;;
69894;SDS011;57172;52.034;5.090;2023-12-04T02:46:51;25.55;;;9.20;;
69894;SDS011;57172;52.034;5.090;2023-12-04T02:49:17;26.48;;;9.57;;
69894;SDS011;57172;52.034;5.090;2023-12-04T02:51:45;22.80;;;8.43;;
69894;SDS011;57172;52.034;5.090;2023-12-04T02:54:11;23.45;;;9.52;;
69894;SDS011;57172;52.034;5.090;2023-12-04T02:56:38;25.73;;;9.53;;
69894;SDS011;57172;52.034;5.090;2023-12-04T02:59:05;21.88;;;9.25;;
69894;SDS011;57172;52.034;5.090;2023-12-04T03:01:32;25.30;;;9.80;;
69894;SDS011;57172;52.034;5.090;2023-12-04T03:03:59;26.42;;;9.93;;
69894;SDS011;57172;52.034;5.090;2023-12-04T03:06:26;17.80;;;7.13;;
69894;SDS011;57172;52.034;5.090;2023-12-04T03:08:53;21.70;;;8.20;;
69894;SDS011;57172;52.034;5.090;2023-12-04T03:11:20;27.73;;;9.13;;
69894;SDS011;57172;52.034;5.090;2023-12-04T03:13:47;21.98;;;8.38;;
69894;SDS011;57172;52.034;5.090;2023-12-04T03:16:17;23.13;;;8.57;;
69894;SDS011;57172;52.034;5.090;2023-12-04T03:18:45;22.42;;;7.95;;
69894;SDS011;57172;52.034;5.090;2023-12-04T03:21:12;22.87;;;9.00;;
69894;SDS011;57172;52.034;5.090;2023-12-04T03:23:39;22.05;;;9.07;;
69894;SDS011;57172;52.034;5.090;2023-12-04T03:26:06;20.42;;;8.23;;
69894;SDS011;57172;52.034;5.090;2023-12-04T03:28:33;22.58;;;8.55;;
69894;SDS011;57172;52.034;5.090;2023-12-04T03:31:01;21.52;;;8.30;;
69894;SDS011;57172;52.034;5.090;2023-12-04T03:33:28;23.20;;;9.30;;
69894;SDS011;57172;52.034;5.090;2023-12-04T03:35:55;23.13;;;8.50;;
69894;SDS011;57172;52.034;5.090;2023-12-04T03:38:22;22.42;;;7.72;;
69894;SDS011;57172;52.034;5.090;2023-12-04T03:40:49;24.77;;;8.45;;
69894;SDS011;57172;52.034;5.090;2023-12-04T03:43:16;21.70;;;8.48;;
69894;SDS011;57172;52.034;5.090;2023-12-04T03:45:43;20.13;;;8.27;;
69894;SDS011;57172;52.034;5.090;2023-12-04T03:48:10;19.42;;;8.90;;
69894;SDS011;57172;52.034;5.090;2023-12-04T03:50:37;21.58;;;8.60;;
69894;SDS011;57172;52.034;5.090;2023-12-04T03:53:04;23.73;;;8.95;;
69894;SDS011;57172;52.034;5.090;2023-12-04T03:55:31;18.58;;;7.82;;
69894;SDS011;57172;52.034;5.090;2023-12-04T03:57:58;23.60;;;8.57;;
69894;SDS011;57172;52.034;5.090;2023-12-04T04:00:25;18.50;;;7.38;;
69894;SDS011;57172;52.034;5.090;2023-12-04T04:02:52;19.25;;;7.55;;
69894;SDS011;57172;52.034;5.090;2023-12-04T04:05:19;16.40;;;6.90;;
69894;SDS011;57172;52.034;5.090;2023-12-04T04:07:46;19.95;;;7.55;;
69894;SDS011;57172;52.034;5.090;2023-12-04T04:10:13;19.43;;;7.37;;
69894;SDS011;57172;52.034;5.090;2023-12-04T04:12:40;20.50;;;8.00;;
69894;SDS011;57172;52.034;5.090;2023-12-04T04:15:08;21.17;;;8.27;;
69894;SDS011;57172;52.034;5.090;2023-12-04T04:17:35;19.02;;;7.72;;
69894;SDS011;57172;52.034;5.090;2023-12-04T04:20:02;20.65;;;7.85;;
69894;SDS011;57172;52.034;5.090;2023-12-04T04:22:29;22.40;;;8.17;;
69894;SDS011;57172;52.034;5.090;2023-12-04T04:24:58;15.95;;;6.85;;
69894;SDS011;57172;52.034;5.090;2023-12-04T04:27:24;18.85;;;7.35;;
69894;SDS011;57172;52.034;5.090;2023-12-04T04:29:51;17.75;;;7.20;;
69894;SDS011;57172;52.034;5.090;2023-12-04T04:32:18;17.00;;;6.95;;
69894;SDS011;57172;52.034;5.090;2023-12-04T04:34:45;19.20;;;8.27;;
69894;SDS011;57172;52.034;5.090;2023-12-04T04:37:12;22.98;;;8.02;;
69894;SDS011;57172;52.034;5.090;2023-12-04T04:39:39;19.50;;;7.95;;
69894;SDS011;57172;52.034;5.090;2023-12-04T04:42:06;20.55;;;7.93;;
69894;SDS011;57172;52.034;5.090;2023-12-04T04:44:33;16.67;;;7.18;;
69894;SDS011;57172;52.034;5.090;2023-12-04T04:47:01;14.70;;;5.37;;
69894;SDS011;57172;52.034;5.090;2023-12-04T04:49:28;17.63;;;7.15;;
69894;SDS011;57172;52.034;5.090;2023-12-04T04:51:55;18.60;;;6.35;;
69894;SDS011;57172;52.034;5.090;2023-12-04T04:54:22;18.65;;;7.70;;
69894;SDS011;57172;52.034;5.090;2023-12-04T04:56:49;16.63;;;7.15;;
69894;SDS011;57172;52.034;5.090;2023-12-04T04:59:17;15.07;;;6.00;;
69894;SDS011;57172;52.034;5.090;2023-12-04T05:01:44;18.52;;;7.30;;
69894;SDS011;57172;52.034;5.090;2023-12-04T05:04:11;16.20;;;7.10;;
69894;SDS011;57172;52.034;5.090;2023-12-04T05:06:38;17.85;;;7.88;;
69894;SDS011;57172;52.034;5.090;2023-12-04T05:09:05;14.93;;;6.90;;
69894;SDS011;57172;52.034;5.090;2023-12-04T05:11:32;15.97;;;6.10;;
69894;SDS011;57172;52.034;5.090;2023-12-04T05:13:59;18.20;;;7.40;;
69894;SDS011;57172;52.034;5.090;2023-12-04T05:16:26;15.02;;;6.63;;
69894;SDS011;57172;52.034;5.090;2023-12-04T05:18:53;19.50;;;7.22;;
69894;SDS011;57172;52.034;5.090;2023-12-04T05:21:20;13.80;;;5.97;;
69894;SDS011;57172;52.034;5.090;2023-12-04T05:23:47;18.17;;;7.80;;
69894;SDS011;57172;52.034;5.090;2023-12-04T05:26:14;18.65;;;7.38;;
69894;SDS011;57172;52.034;5.090;2023-12-04T05:28:41;18.58;;;7.25;;
69894;SDS011;57172;52.034;5.090;2023-12-04T05:31:07;18.38;;;7.18;;
69894;SDS011;57172;52.034;5.090;2023-12-04T05:33:34;17.35;;;6.95;;
69894;SDS011;57172;52.034;5.090;2023-12-04T05:36:01;17.40;;;7.27;;
69894;SDS011;57172;52.034;5.090;2023-12-04T05:38:29;15.70;;;6.53;;
69894;SDS011;57172;52.034;5.090;2023-12-04T05:40:56;14.57;;;6.07;;
69894;SDS011;57172;52.034;5.090;2023-12-04T05:43:23;15.75;;;6.45;;
69894;SDS011;57172;52.034;5.090;2023-12-04T05:45:50;17.88;;;6.78;;
69894;SDS011;57172;52.034;5.090;2023-12-04T05:48:18;13.93;;;6.00;;
69894;SDS011;57172;52.034;5.090;2023-12-04T05:50:45;16.25;;;6.10;;
69894;SDS011;57172;52.034;5.090;2023-12-04T05:53:12;13.05;;;5.47;;
69894;SDS011;57172;52.034;5.090;2023-12-04T05:55:39;18.52;;;7.40;;
69894;SDS011;57172;52.034;5.090;2023-12-04T05:58:05;15.77;;;6.72;;
69894;SDS011;57172;52.034;5.090;2023-12-04T06:00:32;15.27;;;6.40;;
69894;SDS011;57172;52.034;5.090;2023-12-04T06:02:59;18.75;;;7.15;;
69894;SDS011;57172;52.034;5.090;2023-12-04T06:05:26;18.23;;;7.07;;
69894;SDS011;57172;52.034;5.090;2023-12-04T06:07:54;17.05;;;6.78;;
69894;SDS011;57172;52.034;5.090;2023-12-04T06:10:20;19.50;;;7.60;;
69894;SDS011;57172;52.034;5.090;2023-12-04T06:12:47;18.00;;;7.73;;
69894;SDS011;57172;52.034;5.090;2023-12-04T06:15:14;16.23;;;6.97;;
69894;SDS011;57172;52.034;5.090;2023-12-04T06:17:41;16.85;;;7.13;;
69894;SDS011;57172;52.034;5.090;2023-12-04T06:20:08;18.85;;;7.88;;
69894;SDS011;57172;52.034;5.090;2023-12-04T06:22:37;17.85;;;7.53;;
69894;SDS011;57172;52.034;5.090;2023-12-04T06:25:04;20.27;;;8.20;;
69894;SDS011;57172;52.034;5.090;2023-12-04T06:27:32;12.40;;;5.13;;
69894;SDS011;57172;52.034;5.090;2023-12-04T06:30:00;16.83;;;7.20;;
69894;SDS011;57172;52.034;5.090;2023-12-04T06:32:28;15.95;;;6.95;;
69894;SDS011;57172;52.034;5.090;2023-12-04T06:34:55;17.13;;;7.85;;
69894;SDS011;57172;52.034;5.090;2023-12-04T06:37:22;18.23;;;7.60;;
69894;SDS011;57172;52.034;5.090;2023-12-04T06:39:49;15.93;;;6.55;;
69894;SDS011;57172;52.034;5.090;2023-12-04T06:42:19;16.80;;;6.65;;
69894;SDS011;57172;52.034;5.090;2023-12-04T06:44:47;18.80;;;8.50;;
69894;SDS011;57172;52.034;5.090;2023-12-04T06:47:14;16.98;;;7.32;;
69894;SDS011;57172;52.034;5.090;2023-12-04T06:49:44;14.93;;;6.53;;
69894;SDS011;57172;52.034;5.090;2023-12-04T06:52:11;15.25;;;6.40;;
69894;SDS011;57172;52.034;5.090;2023-12-04T06:54:38;14.60;;;5.68;;
69894;SDS011;57172;52.034;5.090;2023-12-04T06:57:05;18.02;;;7.18;;
69894;SDS011;57172;52.034;5.090;2023-12-04T06:59:32;14.85;;;6.78;;
69894;SDS011;57172;52.034;5.090;2023-12-04T07:01:59;16.57;;;7.03;;
69894;SDS011;57172;52.034;5.090;2023-12-04T07:04:26;19.15;;;8.02;;
69894;SDS011;57172;52.034;5.090;2023-12-04T07:06:53;18.50;;;7.75;;
69894;SDS011;57172;52.034;5.090;2023-12-04T07:09:20;18.65;;;7.82;;
69894;SDS011;57172;52.034;5.090;2023-12-04T07:11:47;14.45;;;7.05;;
69894;SDS011;57172;52.034;5.090;2023-12-04T07:14:14;19.47;;;6.80;;
69894;SDS011;57172;52.034;5.090;2023-12-04T07:16:41;19.90;;;7.90;;
69894;SDS011;57172;52.034;5.090;2023-12-04T07:19:09;13.65;;;5.47;;
69894;SDS011;57172;52.034;5.090;2023-12-04T07:21:37;18.23;;;8.27;;
69894;SDS011;57172;52.034;5.090;2023-12-04T07:24:05;17.45;;;7.05;;
69894;SDS011;57172;52.034;5.090;2023-12-04T07:26:33;18.67;;;7.33;;
69894;SDS011;57172;52.034;5.090;2023-12-04T07:29:01;18.25;;;7.70;;
69894;SDS011;57172;52.034;5.090;2023-12-04T07:31:30;17.42;;;7.75;;
69894;SDS011;57172;52.034;5.090;2023-12-04T07:33:57;18.50;;;7.68;;
69894;SDS011;57172;52.034;5.090;2023-12-04T07:36:26;15.82;;;7.10;;
69894;SDS011;57172;52.034;5.090;2023-12-04T07:38:54;15.37;;;6.70;;
69894;SDS011;57172;52.034;5.090;2023-12-04T07:41:21;17.08;;;6.50;;
69894;SDS011;57172;52.034;5.090;2023-12-04T07:43:48;16.63;;;7.40;;
69894;SDS011;57172;52.034;5.090;2023-12-04T07:46:16;18.70;;;7.78;;
69894;SDS011;57172;52.034;5.090;2023-12-04T07:48:43;18.85;;;7.88;;
69894;SDS011;57172;52.034;5.090;2023-12-04T07:51:13;16.90;;;6.90;;
69894;SDS011;57172;52.034;5.090;2023-12-04T07:53:40;17.63;;;7.10;;
69894;SDS011;57172;52.034;5.090;2023-12-04T07:56:07;16.00;;;7.13;;
69894;SDS011;57172;52.034;5.090;2023-12-04T07:58:34;18.15;;;7.70;;
69894;SDS011;57172;52.034;5.090;2023-12-04T08:01:01;15.18;;;6.78;;
69894;SDS011;57172;52.034;5.090;2023-12-04T08:03:28;14.93;;;7.47;;
69894;SDS011;57172;52.034;5.090;2023-12-04T08:05:55;14.32;;;6.60;;
69894;SDS011;57172;52.034;5.090;2023-12-04T08:08:22;14.75;;;6.80;;
69894;SDS011;57172;52.034;5.090;2023-12-04T08:10:49;19.38;;;7.43;;
69894;SDS011;57172;52.034;5.090;2023-12-04T08:13:16;13.68;;;5.88;;
69894;SDS011;57172;52.034;5.090;2023-12-04T08:15:43;13.03;;;5.50;;
69894;SDS011;57172;52.034;5.090;2023-12-04T08:18:11;14.98;;;6.70;;
69894;SDS011;57172;52.034;5.090;2023-12-04T08:20:38;15.73;;;6.82;;
69894;SDS011;57172;52.034;5.090;2023-12-04T08:23:07;14.95;;;6.93;;
69894;SDS011;57172;52.034;5.090;2023-12-04T08:25:34;11.88;;;4.75;;
69894;SDS011;57172;52.034;5.090;2023-12-04T08:28:04;15.20;;;6.70;;
69894;SDS011;57172;52.034;5.090;2023-12-04T08:30:31;14.85;;;6.10;;
69894;SDS011;57172;52.034;5.090;2023-12-04T08:32:58;19.02;;;6.30;;
69894;SDS011;57172;52.034;5.090;2023-12-04T08:35:25;13.80;;;5.75;;
69894;SDS011;57172;52.034;5.090;2023-12-04T08:37:51;11.48;;;4.72;;
69894;SDS011;57172;52.034;5.090;2023-12-04T08:40:18;13.87;;;6.10;;
69894;SDS011;57172;52.034;5.090;2023-12-04T08:42:46;15.27;;;6.22;;
69894;SDS011;57172;52.034;5.090;2023-12-04T08:45:12;12.98;;;5.78;;
69894;SDS011;57172;52.034;5.090;2023-12-04T08:47:41;13.95;;;6.40;;
69894;SDS011;57172;52.034;5.090;2023-12-04T08:50:08;11.05;;;4.85;;
69894;SDS011;57172;52.034;5.090;2023-12-04T08:52:35;16.20;;;6.43;;
69894;SDS011;57172;52.034;5.090;2023-12-04T08:55:03;16.77;;;6.97;;
69894;SDS011;57172;52.034;5.090;2023-12-04T08:57:33;15.27;;;6.50;;
69894;SDS011;57172;52.034;5.090;2023-12-04T09:00:00;12.40;;;5.80;;
69894;SDS011;57172;52.034;5.090;2023-12-04T09:02:27;11.02;;;5.45;;
69894;SDS011;57172;52.034;5.090;2023-12-04T09:04:54;13.90;;;6.40;;
69894;SDS011;57172;52.034;5.090;2023-12-04T09:07:21;12.15;;;5.10;;
69894;SDS011;57172;52.034;5.090;2023-12-04T09:09:51;13.82;;;5.38;;
69894;SDS011;57172;52.034;5.090;2023-12-04T09:12:18;14.75;;;6.18;;
69894;SDS011;57172;52.034;5.090;2023-12-04T09:14:45;12.55;;;5.82;;
69894;SDS011;57172;52.034;5.090;2023-12-04T09:17:12;12.37;;;5.60;;
69894;SDS011;57172;52.034;5.090;2023-12-04T09:19:39;10.95;;;5.15;;
69894;SDS011;57172;52.034;5.090;2023-12-04T09:22:06;11.52;;;5.35;;
69894;SDS011;57172;52.034;5.090;2023-12-04T09:24:44;15.07;;;6.28;;
69894;SDS011;57172;52.034;5.090;2023-12-04T09:27:11;12.77;;;6.10;;
69894;SDS011;57172;52.034;5.090;2023-12-04T09:29:38;13.80;;;6.13;;
69894;SDS011;57172;52.034;5.090;2023-12-04T09:32:07;14.15;;;6.60;;
69894;SDS011;57172;52.034;5.090;2023-12-04T09:34:34;13.55;;;6.03;;
69894;SDS011;57172;52.034;5.090;2023-12-04T09:37:01;12.48;;;6.00;;
69894;SDS011;57172;52.034;5.090;2023-12-04T09:39:36;14.15;;;6.35;;
69894;SDS011;57172;52.034;5.090;2023-12-04T09:42:04;14.00;;;4.77;;
69894;SDS011;57172;52.034;5.090;2023-12-04T09:44:31;11.95;;;5.55;;
69894;SDS011;57172;52.034;5.090;2023-12-04T09:46:59;19.33;;;5.85;;
69894;SDS011;57172;52.034;5.090;2023-12-04T09:49:29;13.23;;;5.93;;
69894;SDS011;57172;52.034;5.090;2023-12-04T09:51:57;11.20;;;5.70;;
69894;SDS011;57172;52.034;5.090;2023-12-04T09:54:25;10.90;;;5.40;;
69894;SDS011;57172;52.034;5.090;2023-12-04T09:56:53;13.10;;;5.90;;
69894;SDS011;57172;52.034;5.090;2023-12-04T09:59:20;12.48;;;5.90;;
69894;SDS011;57172;52.034;5.090;2023-12-04T10:01:51;10.63;;;5.90;;
69894;SDS011;57172;52.034;5.090;2023-12-04T10:04:19;11.10;;;4.70;;
69894;SDS011;57172;52.034;5.090;2023-12-04T10:06:49;12.73;;;5.80;;
69894;SDS011;57172;52.034;5.090;2023-12-04T10:09:17;12.98;;;6.00;;
69894;SDS011;57172;52.034;5.090;2023-12-04T10:11:45;13.60;;;6.20;;
69894;SDS011;57172;52.034;5.090;2023-12-04T10:14:14;12.20;;;5.35;;
69894;SDS011;57172;52.034;5.090;2023-12-04T10:16:43;11.00;;;5.28;;
69894;SDS011;57172;52.034;5.090;2023-12-04T10:19:21;13.23;;;5.93;;
69894;SDS011;57172;52.034;5.090;2023-12-04T10:21:56;12.77;;;6.22;;
69894;SDS011;57172;52.034;5.090;2023-12-04T10:26:54;12.95;;;6.47;;
69894;SDS011;57172;52.034;5.090;2023-12-04T10:29:21;11.18;;;5.35;;
69894;SDS011;57172;52.034;5.090;2023-12-04T10:31:49;13.57;;;6.20;;
69894;SDS011;57172;52.034;5.090;2023-12-04T10:34:18;13.38;;;6.30;;
69894;SDS011;57172;52.034;5.090;2023-12-04T10:36:46;13.38;;;6.40;;
69894;SDS011;57172;52.034;5.090;2023-12-04T10:39:13;11.15;;;5.68;;
69894;SDS011;57172;52.034;5.090;2023-12-04T10:41:41;13.38;;;6.07;;
69894;SDS011;57172;52.034;5.090;2023-12-04T10:44:08;12.57;;;6.17;;
69894;SDS011;57172;52.034;5.090;2023-12-04T10:46:36;10.30;;;5.03;;
69894;SDS011;57172;52.034;5.090;2023-12-04T10:49:04;12.25;;;6.00;;
69894;SDS011;57172;52.034;5.090;2023-12-04T10:51:33;13.23;;;6.97;;
69894;SDS011;57172;52.034;5.090;2023-12-04T10:54:01;13.70;;;6.45;;
69894;SDS011;57172;52.034;5.090;2023-12-04T10:56:38;13.63;;;6.00;;
69894;SDS011;57172;52.034;5.090;2023-12-04T10:59:10;13.00;;;6.10;;
69894;SDS011;57172;52.034;5.090;2023-12-04T11:01:38;16.17;;;6.55;;
69894;SDS011;57172;52.034;5.090;2023-12-04T11:04:13;12.15;;;5.43;;
69894;SDS011;57172;52.034;5.090;2023-12-04T11:06:51;13.40;;;6.00;;
69894;SDS011;57172;52.034;5.090;2023-12-04T11:09:20;13.57;;;6.07;;
69894;SDS011;57172;52.034;5.090;2023-12-04T11:11:53;12.77;;;6.00;;
69894;SDS011;57172;52.034;5.090;2023-12-04T11:14:27;13.50;;;5.95;;
69894;SDS011;57172;52.034;5.090;2023-12-04T11:17:04;14.07;;;6.20;;
69894;SDS011;57172;52.034;5.090;2023-12-04T11:22:19;13.90;;;6.50;;
69894;SDS011;57172;52.034;5.090;2023-12-04T11:24:48;13.55;;;6.85;;
69894;SDS011;57172;52.034;5.090;2023-12-04T11:27:16;14.18;;;6.47;;
69894;SDS011;57172;52.034;5.090;2023-12-04T11:29:45;14.15;;;7.13;;
69894;SDS011;57172;52.034;5.090;2023-12-04T11:32:14;13.15;;;6.60;;
69894;SDS011;57172;52.034;5.090;2023-12-04T11:34:49;16.40;;;7.00;;
69894;SDS011;57172;52.034;5.090;2023-12-04T11:37:19;12.43;;;5.93;;
69894;SDS011;57172;52.034;5.090;2023-12-04T11:39:46;13.50;;;6.85;;
69894;SDS011;57172;52.034;5.090;2023-12-04T11:42:18;12.88;;;6.68;;
69894;SDS011;57172;52.034;5.090;2023-12-04T11:44:47;13.07;;;5.95;;
69894;SDS011;57172;52.034;5.090;2023-12-04T11:47:15;13.90;;;7.20;;
69894;SDS011;57172;52.034;5.090;2023-12-04T11:49:42;14.48;;;7.40;;
69894;SDS011;57172;52.034;5.090;2023-12-04T11:52:10;14.05;;;6.82;;
69894;SDS011;57172;52.034;5.090;2023-12-04T11:57:27;16.40;;;7.15;;
69894;SDS011;57172;52.034;5.090;2023-12-04T12:05:40;15.68;;;7.93;;
69894;SDS011;57172;52.034;5.090;2023-12-04T12:08:09;15.80;;;7.53;;
69894;SDS011;57172;52.034;5.090;2023-12-04T12:10:36;16.23;;;7.88;;
69894;SDS011;57172;52.034;5.090;2023-12-04T12:13:03;15.40;;;7.27;;
69894;SDS011;57172;52.034;5.090;2023-12-04T12:15:32;11.38;;;5.80;;
69894;SDS011;57172;52.034;5.090;2023-12-04T12:17:59;17.17;;;8.13;;
69894;SDS011;57172;52.034;5.090;2023-12-04T12:20:26;17.00;;;7.95;;
69894;SDS011;57172;52.034;5.090;2023-12-04T12:22:53;15.77;;;8.15;;
69894;SDS011;57172;52.034;5.090;2023-12-04T12:25:20;16.63;;;8.13;;
69894;SDS011;57172;52.034;5.090;2023-12-04T12:27:49;16.25;;;8.38;;
69894;SDS011;57172;52.034;5.090;2023-12-04T12:30:17;16.05;;;7.43;;
69894;SDS011;57172;52.034;5.090;2023-12-04T12:32:44;17.88;;;8.45;;
69894;SDS011;57172;52.034;5.090;2023-12-04T12:35:11;15.98;;;8.38;;
69894;SDS011;57172;52.034;5.090;2023-12-04T12:37:38;16.73;;;8.40;;
69894;SDS011;57172;52.034;5.090;2023-12-04T12:40:06;17.17;;;7.70;;
69894;SDS011;57172;52.034;5.090;2023-12-04T12:42:37;16.65;;;6.88;;
69894;SDS011;57172;52.034;5.090;2023-12-04T12:45:12;14.63;;;6.65;;
69894;SDS011;57172;52.034;5.090;2023-12-04T12:47:42;16.67;;;8.43;;
69894;SDS011;57172;52.034;5.090;2023-12-04T12:50:10;16.53;;;7.80;;
69894;SDS011;57172;52.034;5.090;2023-12-04T12:52:39;15.63;;;7.68;;
69894;SDS011;57172;52.034;5.090;2023-12-04T12:55:06;15.65;;;7.97;;
69894;SDS011;57172;52.034;5.090;2023-12-04T12:57:34;15.00;;;7.93;;
69894;SDS011;57172;52.034;5.090;2023-12-04T13:00:01;15.98;;;7.55;;
69894;SDS011;57172;52.034;5.090;2023-12-04T13:02:28;16.07;;;6.47;;
69894;SDS011;57172;52.034;5.090;2023-12-04T13:04:55;15.98;;;8.20;;
69894;SDS011;57172;52.034;5.090;2023-12-04T13:07:22;15.95;;;8.23;;
69894;SDS011;57172;52.034;5.090;2023-12-04T13:09:49;16.15;;;7.50;;
69894;SDS011;57172;52.034;5.090;2023-12-04T13:12:16;19.50;;;8.43;;
69894;SDS011;57172;52.034;5.090;2023-12-04T13:14:43;17.23;;;8.10;;
69894;SDS011;57172;52.034;5.090;2023-12-04T13:17:10;17.83;;;7.90;;
69894;SDS011;57172;52.034;5.090;2023-12-04T13:19:37;16.42;;;8.18;;
69894;SDS011;57172;52.034;5.090;2023-12-04T13:22:04;16.15;;;7.40;;
69894;SDS011;57172;52.034;5.090;2023-12-04T13:24:31;16.15;;;8.10;;
69894;SDS011;57172;52.034;5.090;2023-12-04T13:26:58;16.37;;;8.03;;
69894;SDS011;57172;52.034;5.090;2023-12-04T13:29:25;13.85;;;6.75;;
69894;SDS011;57172;52.034;5.090;2023-12-04T13:31:52;16.25;;;6.85;;
69894;SDS011;57172;52.034;5.090;2023-12-04T13:34:19;12.88;;;6.38;;
69894;SDS011;57172;52.034;5.090;2023-12-04T13:36:46;17.92;;;8.55;;
69894;SDS011;57172;52.034;5.090;2023-12-04T13:39:13;16.20;;;7.27;;
69894;SDS011;57172;52.034;5.090;2023-12-04T13:41:46;15.75;;;7.35;;
69894;SDS011;57172;52.034;5.090;2023-12-04T13:44:32;17.50;;;8.88;;
69894;SDS011;57172;52.034;5.090;2023-12-04T13:47:00;17.88;;;8.48;;
69894;SDS011;57172;52.034;5.090;2023-12-04T13:49:27;17.45;;;8.50;;
69894;SDS011;57172;52.034;5.090;2023-12-04T13:51:54;17.90;;;8.47;;
69894;SDS011;57172;52.034;5.090;2023-12-04T13:54:21;14.38;;;6.85;;
69894;SDS011;57172;52.034;5.090;2023-12-04T13:56:57;19.95;;;8.80;;
69894;SDS011;57172;52.034;5.090;2023-12-04T13:59:25;16.73;;;7.75;;
69894;SDS011;57172;52.034;5.090;2023-12-04T14:01:53;18.08;;;8.43;;
69894;SDS011;57172;52.034;5.090;2023-12-04T14:04:26;15.97;;;7.47;;
69894;SDS011;57172;52.034;5.090;2023-12-04T14:06:55;17.63;;;8.30;;
69894;SDS011;57172;52.034;5.090;2023-12-04T14:09:26;15.23;;;7.43;;
69894;SDS011;57172;52.034;5.090;2023-12-04T14:11:53;16.58;;;7.82;;
69894;SDS011;57172;52.034;5.090;2023-12-04T14:14:20;14.70;;;6.20;;
69894;SDS011;57172;52.034;5.090;2023-12-04T14:16:47;16.20;;;7.10;;
69894;SDS011;57172;52.034;5.090;2023-12-04T14:19:15;17.60;;;7.50;;
69894;SDS011;57172;52.034;5.090;2023-12-04T14:21:44;16.20;;;7.72;;
69894;SDS011;57172;52.034;5.090;2023-12-04T14:24:11;17.08;;;8.35;;
69894;SDS011;57172;52.034;5.090;2023-12-04T14:26:38;17.48;;;8.25;;
69894;SDS011;57172;52.034;5.090;2023-12-04T14:29:04;13.00;;;6.00;;
69894;SDS011;57172;52.034;5.090;2023-12-04T14:31:34;17.73;;;7.70;;
69894;SDS011;57172;52.034;5.090;2023-12-04T14:34:01;15.77;;;7.80;;
69894;SDS011;57172;52.034;5.090;2023-12-04T14:36:29;16.92;;;7.72;;
69894;SDS011;57172;52.034;5.090;2023-12-04T14:39:00;16.42;;;7.32;;
69894;SDS011;57172;52.034;5.090;2023-12-04T14:41:27;16.07;;;7.87;;
69894;SDS011;57172;52.034;5.090;2023-12-04T14:43:54;16.83;;;7.78;;
69894;SDS011;57172;52.034;5.090;2023-12-04T14:46:22;16.90;;;8.05;;
69894;SDS011;57172;52.034;5.090;2023-12-04T14:48:49;17.27;;;7.43;;
69894;SDS011;57172;52.034;5.090;2023-12-04T14:51:16;13.60;;;6.60;;